Time;durP1;ratioP1;P1;durP2;ratioP2;P2;SDS_P1;SDS_P2;PMS_P1;PMS_P2;Temp;Humidity;BMP_temperature;BMP_pressure;BME280_temperature;BME280_humidity;BME280_pressure;Samples;Min_cycle;Max_cycle;Signal;HPM_P1;HPM_P2
2022/06/20 00:01:38;;;;;;;5.57;2.60;;;;;;;;;;4992111;28;20026;-68
2022/06/20 00:04:05;;;;;;;5.25;2.78;;;;;;;;;;4992124;28;20398;-67
2022/06/20 00:06:30;;;;;;;8.82;2.53;;;;;;;;;;4992060;28;20056;-69
2022/06/20 00:08:56;;;;;;;10.25;2.90;;;;;;;;;;4992221;28;20113;-67
2022/06/20 00:11:40;;;;;;;5.10;2.15;;;;;;;;;;4992620;28;20401;-66
2022/06/20 00:14:14;;;;;;;5.80;2.63;;;;;;;;;;4992304;28;20031;-67
2022/06/20 00:16:41;;;;;;;10.23;3.60;;;;;;;;;;4992231;28;20031;-69
2022/06/20 00:19:07;;;;;;;9.27;2.75;;;;;;;;;;4992210;28;20034;-64
2022/06/20 00:21:33;;;;;;;4.40;2.30;;;;;;;;;;4992183;28;20054;-64
2022/06/20 00:23:59;;;;;;;6.50;2.38;;;;;;;;;;4992126;28;20109;-67
2022/06/20 00:26:25;;;;;;;7.38;2.50;;;;;;;;;;4992439;28;20112;-65
2022/06/20 00:28:51;;;;;;;8.25;2.55;;;;;;;;;;4992297;28;20393;-67
2022/06/20 00:31:17;;;;;;;5.07;2.50;;;;;;;;;;4992389;28;20057;-65
2022/06/20 00:33:43;;;;;;;3.75;2.40;;;;;;;;;;4992138;28;20066;-68
2022/06/20 00:36:09;;;;;;;4.95;2.15;;;;;;;;;;4992248;28;20429;-64
2022/06/20 00:38:35;;;;;;;2.88;2.40;;;;;;;;;;4992250;28;20432;-64
2022/06/20 00:41:16;;;;;;;5.18;2.80;;;;;;;;;;4992054;28;20042;-67
2022/06/20 00:43:48;;;;;;;5.75;2.50;;;;;;;;;;4992040;28;20500;-64
2022/06/20 00:46:29;;;;;;;6.18;2.80;;;;;;;;;;4992454;28;20026;-65
2022/06/20 00:49:22;;;;;;;9.80;3.00;;;;;;;;;;4992292;28;20089;-66
2022/06/20 00:52:13;;;;;;;13.70;3.38;;;;;;;;;;4991899;28;20042;-66
2022/06/20 00:54:48;;;;;;;9.27;3.55;;;;;;;;;;4991923;28;20030;-64
2022/06/20 00:57:20;;;;;;;3.63;2.38;;;;;;;;;;5000352;28;20148;-65
2022/06/20 00:59:54;;;;;;;5.57;2.72;;;;;;;;;;5001717;28;20080;-65
2022/06/20 01:02:38;;;;;;;4.30;2.60;;;;;;;;;;4992086;28;20038;-65
2022/06/20 01:05:20;;;;;;;5.50;2.30;;;;;;;;;;4989761;28;20060;-64
2022/06/20 01:07:52;;;;;;;2.88;2.30;;;;;;;;;;4976149;28;20052;-67
2022/06/20 01:10:19;;;;;;;4.15;2.65;;;;;;;;;;4982162;28;20073;-67
2022/06/20 01:12:54;;;;;;;4.63;2.30;;;;;;;;;;5014789;28;20100;-64
2022/06/20 01:15:24;;;;;;;4.88;2.47;;;;;;;;;;4997449;28;20030;-64
2022/06/20 01:17:51;;;;;;;6.75;2.90;;;;;;;;;;4995040;28;20089;-68
2022/06/20 01:20:22;;;;;;;5.03;2.50;;;;;;;;;;4995432;28;20019;-65
2022/06/20 01:23:16;;;;;;;6.35;3.28;;;;;;;;;;4995393;28;20051;-65
2022/06/20 01:26:16;;;;;;;4.47;2.50;;;;;;;;;;4993524;28;20057;-70
2022/06/20 01:28:45;;;;;;;5.43;2.35;;;;;;;;;;4995183;28;20109;-65
2022/06/20 01:31:15;;;;;;;4.95;2.50;;;;;;;;;;4995267;28;20058;-68
2022/06/20 01:33:41;;;;;;;2.78;2.30;;;;;;;;;;4990502;28;20054;-68
2022/06/20 01:38:55;;;;;;;6.68;2.30;;;;;;;;;;4989260;28;20515;-69
2022/06/20 01:44:06;;;;;;;3.65;2.33;;;;;;;;;;4983053;28;20030;-66
2022/06/20 01:46:34;;;;;;;4.72;2.67;;;;;;;;;;4978453;28;20031;-68
2022/06/20 01:49:14;;;;;;;9.45;2.80;;;;;;;;;;4975200;28;20111;-67
2022/06/20 01:51:51;;;;;;;4.03;2.30;;;;;;;;;;4975184;28;20061;-65
2022/06/20 01:54:18;;;;;;;5.18;2.58;;;;;;;;;;4975183;28;20513;-66
2022/06/20 01:56:45;;;;;;;4.30;2.40;;;;;;;;;;4975125;28;20063;-66
2022/06/20 01:59:17;;;;;;;3.55;2.40;;;;;;;;;;4975167;28;20035;-65
2022/06/20 02:01:43;;;;;;;4.68;2.38;;;;;;;;;;4974965;28;20375;-65
2022/06/20 02:04:14;;;;;;;4.53;2.22;;;;;;;;;;4975038;28;20050;-64
2022/06/20 02:06:40;;;;;;;5.65;3.10;;;;;;;;;;4977129;28;20305;-68
2022/06/20 02:09:07;;;;;;;6.72;2.50;;;;;;;;;;4983350;28;20491;-63
2022/06/20 02:11:37;;;;;;;7.57;2.50;;;;;;;;;;4974817;28;20038;-65
2022/06/20 02:14:46;;;;;;;12.07;2.72;;;;;;;;;;4974754;28;20034;-64
2022/06/20 02:17:21;;;;;;;6.25;2.47;;;;;;;;;;4977472;28;20042;-65
2022/06/20 02:19:50;;;;;;;9.30;3.05;;;;;;;;;;4974108;28;20034;-64
2022/06/20 02:22:17;;;;;;;8.40;2.78;;;;;;;;;;4974821;28;20042;-65
2022/06/20 02:24:47;;;;;;;10.15;3.30;;;;;;;;;;4975464;28;20116;-64
2022/06/20 02:27:28;;;;;;;4.78;2.63;;;;;;;;;;4974534;28;20058;-65
2022/06/20 02:29:54;;;;;;;7.53;3.08;;;;;;;;;;4976425;28;20386;-68
2022/06/20 02:32:27;;;;;;;7.70;2.72;;;;;;;;;;4983617;28;20034;-65
2022/06/20 02:34:53;;;;;;;4.80;2.30;;;;;;;;;;4979411;28;20397;-68
2022/06/20 02:37:24;;;;;;;6.95;2.40;;;;;;;;;;4986654;28;20045;-70
2022/06/20 02:39:58;;;;;;;3.47;2.30;;;;;;;;;;4975096;28;20113;-65
2022/06/20 02:42:33;;;;;;;5.57;2.38;;;;;;;;;;4973988;28;20035;-65
2022/06/20 02:45:02;;;;;;;3.75;2.20;;;;;;;;;;4974088;28;20037;-66
2022/06/20 02:47:28;;;;;;;2.85;2.00;;;;;;;;;;4973938;28;20038;-65
2022/06/20 02:49:57;;;;;;;4.28;2.50;;;;;;;;;;4973879;28;20046;-66
2022/06/20 02:52:31;;;;;;;5.57;2.60;;;;;;;;;;4973878;28;20027;-66
2022/06/20 02:54:58;;;;;;;4.28;2.15;;;;;;;;;;4974246;28;20035;-65
2022/06/20 02:57:38;;;;;;;5.70;2.60;;;;;;;;;;4974149;28;20082;-71
2022/06/20 03:00:11;;;;;;;7.28;2.65;;;;;;;;;;4973802;28;20533;-65
2022/06/20 03:02:39;;;;;;;5.57;2.63;;;;;;;;;;4974224;28;20038;-65
2022/06/20 03:05:05;;;;;;;7.88;3.03;;;;;;;;;;4973754;28;20031;-66
2022/06/20 03:07:37;;;;;;;6.13;2.90;;;;;;;;;;4973694;28;20122;-66
2022/06/20 03:10:17;;;;;;;4.80;2.50;;;;;;;;;;4973598;28;20037;-65
2022/06/20 03:12:44;;;;;;;8.90;2.60;;;;;;;;;;4973499;28;20035;-65
2022/06/20 03:15:11;;;;;;;8.27;3.33;;;;;;;;;;4973969;28;20029;-64
2022/06/20 03:17:40;;;;;;;12.15;3.63;;;;;;;;;;4992477;28;20080;-67
2022/06/20 03:20:13;;;;;;;4.90;2.88;;;;;;;;;;4992802;28;20034;-66
2022/06/20 03:23:06;;;;;;;5.55;3.15;;;;;;;;;;4992568;28;20034;-66
2022/06/20 03:25:32;;;;;;;6.37;2.93;;;;;;;;;;4992085;28;20046;-70
2022/06/20 03:27:58;;;;;;;7.25;2.88;;;;;;;;;;4992830;28;20034;-66
2022/06/20 03:30:35;;;;;;;4.22;2.50;;;;;;;;;;4992651;28;20057;-67
2022/06/20 03:33:04;;;;;;;3.78;1.95;;;;;;;;;;4992017;28;20034;-66
2022/06/20 03:35:31;;;;;;;4.07;2.42;;;;;;;;;;4992349;28;20030;-67
2022/06/20 03:38:03;;;;;;;3.97;2.38;;;;;;;;;;4992443;28;20037;-64
2022/06/20 03:40:29;;;;;;;5.25;2.45;;;;;;;;;;4992258;28;20062;-64
2022/06/20 03:42:57;;;;;;;7.57;3.30;;;;;;;;;;4992682;28;20389;-64
2022/06/20 03:45:30;;;;;;;6.63;2.58;;;;;;;;;;4992571;28;20044;-66
2022/06/20 03:48:06;;;;;;;8.38;3.00;;;;;;;;;;4992722;28;20066;-65
2022/06/20 03:50:58;;;;;;;10.73;2.58;;;;;;;;;;4981979;28;20039;-64
2022/06/20 03:53:46;;;;;;;6.53;3.05;;;;;;;;;;4975015;28;20051;-69
2022/06/20 03:56:15;;;;;;;5.40;3.00;;;;;;;;;;4972351;28;20031;-70
2022/06/20 03:58:50;;;;;;;5.40;2.83;;;;;;;;;;4972408;28;20105;-68
2022/06/20 04:01:28;;;;;;;5.43;2.50;;;;;;;;;;4973289;28;20026;-67
2022/06/20 04:04:10;;;;;;;5.57;2.92;;;;;;;;;;4973210;28;20064;-68
2022/06/20 04:06:54;;;;;;;3.50;2.35;;;;;;;;;;4972632;28;20493;-71
2022/06/20 04:12:18;;;;;;;6.93;3.42;;;;;;;;;;4973031;28;20402;-67
2022/06/20 04:15:16;;;;;;;4.15;2.30;;;;;;;;;;4972717;28;20055;-70
2022/06/20 04:18:28;;;;;;;9.15;3.10;;;;;;;;;;4984477;28;20566;-70
2022/06/20 04:20:57;;;;;;;6.40;2.65;;;;;;;;;;4984685;28;20588;-71
2022/06/20 04:23:50;;;;;;;6.38;2.80;;;;;;;;;;4990328;28;20022;-69
2022/06/20 04:26:17;;;;;;;5.78;2.92;;;;;;;;;;4990506;28;20465;-70
2022/06/20 04:29:20;;;;;;;6.63;2.60;;;;;;;;;;4990266;28;20026;-66
2022/06/20 04:31:52;;;;;;;6.70;2.85;;;;;;;;;;4987986;28;20047;-70
2022/06/20 04:34:24;;;;;;;9.73;2.53;;;;;;;;;;4987382;28;20069;-69
2022/06/20 04:36:59;;;;;;;7.63;2.70;;;;;;;;;;4989351;28;20074;-70
2022/06/20 04:39:41;;;;;;;5.03;2.28;;;;;;;;;;4989477;28;20097;-70
2022/06/20 04:42:18;;;;;;;10.63;3.10;;;;;;;;;;4989710;28;20038;-70
2022/06/20 04:44:56;;;;;;;7.15;2.70;;;;;;;;;;4993009;28;20073;-72
2022/06/20 04:47:47;;;;;;;9.32;2.50;;;;;;;;;;4992673;28;20117;-69
2022/06/20 04:50:19;;;;;;;6.13;2.65;;;;;;;;;;4993135;28;20357;-68
2022/06/20 04:52:47;;;;;;;;;;;;;;;;;;4994735;28;20034;-68
2022/06/20 04:55:21;;;;;;;6.13;3.17;;;;;;;;;;4995380;28;19914;-68
2022/06/20 04:57:48;;;;;;;11.63;2.92;;;;;;;;;;4995321;28;20038;-70
2022/06/20 05:00:41;;;;;;;8.50;3.38;;;;;;;;;;4996013;28;20052;-67
2022/06/20 05:03:11;;;;;;;7.72;2.90;;;;;;;;;;4987474;28;20046;-71
2022/06/20 05:05:42;;;;;;;6.57;2.70;;;;;;;;;;4990182;28;20022;-68
2022/06/20 05:08:13;;;;;;;6.50;2.55;;;;;;;;;;4976189;28;20035;-70
2022/06/20 05:10:52;;;;;;;2.95;1.85;;;;;;;;;;4976547;28;20433;-67
2022/06/20 05:13:43;;;;;;;7.30;2.63;;;;;;;;;;4977254;28;20062;-67
2022/06/20 05:16:24;;;;;;;4.82;2.40;;;;;;;;;;4976859;28;20552;-71
2022/06/20 05:19:03;;;;;;;6.28;2.50;;;;;;;;;;4976268;28;20474;-69
2022/06/20 05:21:37;;;;;;;8.30;2.63;;;;;;;;;;4975864;28;20030;-70
2022/06/20 05:24:12;;;;;;;4.45;2.65;;;;;;;;;;4977066;28;20478;-71
2022/06/20 05:26:43;;;;;;;7.80;2.78;;;;;;;;;;4976035;28;20097;-65
2022/06/20 05:29:23;;;;;;;6.07;2.53;;;;;;;;;;4975607;28;20043;-72
2022/06/20 05:31:52;;;;;;;8.63;2.80;;;;;;;;;;4977332;28;20043;-66
2022/06/20 05:34:33;;;;;;;6.22;2.63;;;;;;;;;;4975796;28;20549;-67
2022/06/20 05:37:25;;;;;;;7.35;2.83;;;;;;;;;;4975674;28;20034;-68
2022/06/20 05:40:08;;;;;;;9.80;3.38;;;;;;;;;;4975826;28;20138;-68
2022/06/20 05:42:35;;;;;;;5.95;3.10;;;;;;;;;;4975759;28;20390;-69
2022/06/20 05:45:02;;;;;;;7.13;3.65;;;;;;;;;;5001641;28;20026;-73
2022/06/20 05:47:35;;;;;;;7.70;3.00;;;;;;;;;;4980210;28;20031;-72
2022/06/20 05:50:15;;;;;;;11.43;3.40;;;;;;;;;;4975544;28;20445;-73
2022/06/20 05:52:43;;;;;;;5.60;2.80;;;;;;;;;;4975578;28;20043;-71
2022/06/20 05:55:24;;;;;;;13.43;3.88;;;;;;;;;;4974551;28;20158;-74
2022/06/20 05:57:50;;;;;;;10.13;2.80;;;;;;;;;;4975568;28;20040;-71
2022/06/20 06:00:26;;;;;;;6.32;3.00;;;;;;;;;;4975339;28;20035;-71
2022/06/20 06:03:01;;;;;;;8.52;3.78;;;;;;;;;;4978946;28;20042;-72
2022/06/20 06:05:37;;;;;;;6.13;3.08;;;;;;;;;;4975103;28;20160;-73
2022/06/20 06:08:27;;;;;;;8.10;2.80;;;;;;;;;;4977114;28;20098;-73
2022/06/20 06:11:00;;;;;;;5.85;2.80;;;;;;;;;;4975623;28;20187;-71
2022/06/20 06:13:42;;;;;;;4.97;2.40;;;;;;;;;;4977636;28;20097;-65
2022/06/20 06:19:05;;;;;;;8.20;3.00;;;;;;;;;;4974638;28;20539;-72
2022/06/20 06:21:33;;;;;;;6.22;2.70;;;;;;;;;;4975107;28;20560;-75
2022/06/20 06:23:59;;;;;;;3.78;2.58;;;;;;;;;;4975010;28;20102;-73
2022/06/20 06:26:26;;;;;;;5.50;2.67;;;;;;;;;;4974608;28;20045;-72
2022/06/20 06:28:53;;;;;;;5.82;2.05;;;;;;;;;;4974414;28;20041;-73
2022/06/20 06:31:28;;;;;;;6.70;2.05;;;;;;;;;;4977451;28;20043;-71
2022/06/20 06:34:15;;;;;;;7.45;2.17;;;;;;;;;;4974457;28;20047;-71
2022/06/20 06:36:50;;;;;;;4.93;1.88;;;;;;;;;;4974583;28;20385;-73
2022/06/20 06:39:32;;;;;;;4.57;1.92;;;;;;;;;;4974219;28;20573;-74
2022/06/20 06:42:01;;;;;;;5.05;1.85;;;;;;;;;;4978631;28;20508;-74
2022/06/20 06:44:39;;;;;;;7.57;2.60;;;;;;;;;;5013071;28;20384;-77
2022/06/20 06:47:15;;;;;;;5.43;2.30;;;;;;;;;;5013273;28;20033;-75
2022/06/20 06:49:46;;;;;;;5.32;1.70;;;;;;;;;;5012707;28;20108;-74
2022/06/20 06:52:28;;;;;;;3.20;1.70;;;;;;;;;;5012746;28;20037;-78
2022/06/20 06:55:20;;;;;;;3.95;2.10;;;;;;;;;;5003915;28;20034;-73
2022/06/20 06:58:17;;;;;;;3.35;2.10;;;;;;;;;;4993599;28;20027;-77
2022/06/20 07:00:49;;;;;;;6.93;2.13;;;;;;;;;;4992587;28;20149;-77
2022/06/20 07:03:20;;;;;;;3.72;1.52;;;;;;;;;;4993356;28;20386;-75
2022/06/20 07:05:58;;;;;;;4.18;1.90;;;;;;;;;;4992776;28;20117;-71
2022/06/20 07:08:31;;;;;;;2.55;1.80;;;;;;;;;;4995986;28;20038;-75
2022/06/20 07:11:12;;;;;;;6.15;2.75;;;;;;;;;;5012514;28;20120;-73
2022/06/20 07:14:18;;;;;;;4.32;2.35;;;;;;;;;;5007600;28;20060;-73
2022/06/20 07:16:44;;;;;;;3.35;1.95;;;;;;;;;;4977281;28;20446;-72
2022/06/20 07:19:13;;;;;;;3.53;1.70;;;;;;;;;;4991808;28;20157;-74
2022/06/20 07:21:41;;;;;;;4.93;1.80;;;;;;;;;;4976207;28;20042;-74
2022/06/20 07:24:27;;;;;;;4.35;1.65;;;;;;;;;;4984024;28;20326;-76
2022/06/20 07:27:15;;;;;;;4.38;1.88;;;;;;;;;;4973175;28;20066;-74
2022/06/20 07:29:46;;;;;;;7.47;2.08;;;;;;;;;;4975732;28;20093;-74
2022/06/20 07:32:19;;;;;;;3.25;1.95;;;;;;;;;;4992646;28;20535;-76
2022/06/20 07:35:09;;;;;;;7.53;1.98;;;;;;;;;;4983001;28;20042;-75
2022/06/20 07:37:43;;;;;;;2.42;1.73;;;;;;;;;;4991591;28;20038;-75
2022/06/20 07:40:24;;;;;;;3.20;1.80;;;;;;;;;;4991496;28;20062;-72
2022/06/20 07:42:56;;;;;;;4.65;1.75;;;;;;;;;;4991504;28;20030;-74
2022/06/20 07:45:39;;;;;;;4.30;1.80;;;;;;;;;;4995599;28;20088;-77
2022/06/20 07:48:15;;;;;;;3.05;1.67;;;;;;;;;;4999205;28;20062;-75
2022/06/20 07:50:49;;;;;;;2.50;1.67;;;;;;;;;;4971728;28;20039;-76
2022/06/20 07:53:39;;;;;;;5.32;1.60;;;;;;;;;;4971635;28;20478;-78
2022/06/20 07:56:16;;;;;;;4.03;1.70;;;;;;;;;;4993225;28;20488;-74
2022/06/20 07:58:52;;;;;;;4.07;1.80;;;;;;;;;;5004432;28;20089;-75
2022/06/20 08:01:30;;;;;;;3.60;1.52;;;;;;;;;;4992863;28;20030;-78
2022/06/20 08:04:01;;;;;;;2.80;1.50;;;;;;;;;;5010973;28;20167;-76
2022/06/20 08:06:42;;;;;;;2.65;1.65;;;;;;;;;;4997589;28;20037;-72
2022/06/20 08:09:28;;;;;;;8.02;1.90;;;;;;;;;;4990720;28;20076;-72
2022/06/20 08:11:57;;;;;;;4.82;1.90;;;;;;;;;;4991375;28;20042;-73
2022/06/20 08:14:38;;;;;;;3.13;1.80;;;;;;;;;;4991243;28;20037;-72
2022/06/20 08:17:10;;;;;;;3.13;1.60;;;;;;;;;;4990900;28;20103;-72
2022/06/20 08:19:39;;;;;;;6.60;2.10;;;;;;;;;;4995030;28;20034;-73
2022/06/20 08:22:13;;;;;;;3.67;1.50;;;;;;;;;;4995731;28;20030;-76
2022/06/20 08:24:58;;;;;;;4.85;1.60;;;;;;;;;;4975971;28;20031;-74
2022/06/20 08:27:43;;;;;;;2.75;1.50;;;;;;;;;;4975175;28;20206;-72
2022/06/20 08:30:15;;;;;;;3.15;1.48;;;;;;;;;;4980744;28;20034;-74
2022/06/20 08:32:43;;;;;;;4.78;1.73;;;;;;;;;;4981901;28;20031;-74
2022/06/20 08:35:42;;;;;;;2.28;1.40;;;;;;;;;;4978070;28;20046;-75
2022/06/20 08:38:16;;;;;;;4.88;2.00;;;;;;;;;;4974405;28;20094;-71
2022/06/20 08:40:42;;;;;;;4.32;2.00;;;;;;;;;;4975391;28;20490;-74
2022/06/20 08:43:26;;;;;;;4.45;1.50;;;;;;;;;;4975267;28;20378;-74
2022/06/20 08:46:04;;;;;;;4.00;1.50;;;;;;;;;;4975430;28;20034;-75
2022/06/20 08:48:49;;;;;;;4.50;2.00;;;;;;;;;;4975194;28;20034;-73
2022/06/20 08:52:07;;;;;;;2.33;1.50;;;;;;;;;;4974879;28;20489;-72
2022/06/20 08:54:57;;;;;;;3.15;1.30;;;;;;;;;;4981834;28;20047;-74
2022/06/20 08:57:57;;;;;;;3.42;1.77;;;;;;;;;;4973474;28;20043;-73
2022/06/20 09:00:40;;;;;;;2.53;1.75;;;;;;;;;;4975024;28;20042;-73
2022/06/20 09:03:19;;;;;;;2.65;1.90;;;;;;;;;;4974586;28;20220;-73
2022/06/20 09:05:56;;;;;;;3.75;1.67;;;;;;;;;;4974799;28;20093;-72
2022/06/20 09:08:43;;;;;;;2.15;1.50;;;;;;;;;;4975076;28;20034;-74
2022/06/20 09:11:39;;;;;;;4.00;2.38;;;;;;;;;;4974914;28;20065;-73
2022/06/20 09:14:11;;;;;;;3.63;1.80;;;;;;;;;;4974743;28;20555;-74
2022/06/20 09:17:03;;;;;;;2.50;1.30;;;;;;;;;;4975192;28;20104;-74
2022/06/20 09:19:37;;;;;;;4.13;1.83;;;;;;;;;;4974617;28;20046;-74
2022/06/20 09:22:21;;;;;;;4.90;2.40;;;;;;;;;;4973431;28;20140;-75
2022/06/20 09:25:02;;;;;;;5.75;1.77;;;;;;;;;;4973113;28;20122;-74
2022/06/20 09:27:40;;;;;;;5.68;1.77;;;;;;;;;;4974624;28;20047;-74
2022/06/20 09:30:14;;;;;;;2.90;1.52;;;;;;;;;;4975069;28;20108;-73
2022/06/20 09:33:06;;;;;;;2.05;1.40;;;;;;;;;;4974725;28;20035;-75
2022/06/20 09:35:51;;;;;;;3.63;1.77;;;;;;;;;;4974324;28;20133;-73
2022/06/20 09:38:37;;;;;;;3.22;1.95;;;;;;;;;;4974101;28;20030;-75
2022/06/20 09:41:18;;;;;;;7.88;1.98;;;;;;;;;;4974000;28;20046;-74
2022/06/20 09:44:18;;;;;;;2.00;1.35;;;;;;;;;;4982620;28;20473;-74
2022/06/20 09:47:06;;;;;;;9.50;5.30;;;;;;;;;;4993344;28;20031;-73
2022/06/20 09:49:47;;;;;;;8.35;4.80;;;;;;;;;;4992727;28;20042;-71
2022/06/20 09:52:38;;;;;;;3.78;1.92;;;;;;;;;;4993983;28;20057;-74
2022/06/20 09:55:48;;;;;;;2.78;1.60;;;;;;;;;;4994235;28;20046;-73
2022/06/20 09:58:43;;;;;;;3.85;1.73;;;;;;;;;;5011240;28;20111;-71
2022/06/20 10:01:37;;;;;;;3.08;1.83;;;;;;;;;;5011158;28;20377;-72
2022/06/20 10:04:08;;;;;;;2.15;1.60;;;;;;;;;;4996257;28;20499;-73
2022/06/20 10:06:49;;;;;;;5.10;1.55;;;;;;;;;;4993512;28;20062;-72
2022/06/20 10:09:18;;;;;;;5.72;1.58;;;;;;;;;;4993899;28;20044;-73
2022/06/20 10:12:00;;;;;;;1.77;1.20;;;;;;;;;;4993773;28;20026;-72
2022/06/20 10:14:34;;;;;;;3.45;1.80;;;;;;;;;;4987689;28;20042;-74
2022/06/20 10:17:06;;;;;;;3.85;2.13;;;;;;;;;;5001173;28;20049;-74
2022/06/20 10:19:34;;;;;;;3.08;1.90;;;;;;;;;;5012979;28;20073;-75
2022/06/20 10:22:15;;;;;;;4.88;1.40;;;;;;;;;;5012825;28;20112;-74
2022/06/20 10:25:02;;;;;;;2.65;1.73;;;;;;;;;;5012350;28;20447;-74
2022/06/20 10:27:49;;;;;;;3.05;1.58;;;;;;;;;;5012551;28;20105;-73
2022/06/20 10:30:40;;;;;;;3.83;1.42;;;;;;;;;;5012558;28;20026;-74
2022/06/20 10:33:14;;;;;;;4.28;2.10;;;;;;;;;;5012836;28;20480;-75
2022/06/20 10:36:15;;;;;;;4.45;1.70;;;;;;;;;;5012885;28;20044;-72
2022/06/20 10:38:50;;;;;;;2.15;1.40;;;;;;;;;;5012376;28;20034;-75
2022/06/20 10:41:31;;;;;;;2.97;1.75;;;;;;;;;;5011715;28;20337;-74
2022/06/20 10:44:13;;;;;;;3.22;1.33;;;;;;;;;;5012319;28;20040;-74
2022/06/20 10:46:42;;;;;;;2.00;1.50;;;;;;;;;;5012222;28;20038;-75
2022/06/20 10:49:29;;;;;;;2.28;1.30;;;;;;;;;;5012305;28;20132;-75
2022/06/20 10:52:17;;;;;;;3.67;1.50;;;;;;;;;;5012594;28;20032;-74
2022/06/20 10:55:11;;;;;;;2.75;1.23;;;;;;;;;;4984277;28;20035;-74
2022/06/20 10:58:07;;;;;;;3.30;1.48;;;;;;;;;;4973734;28;20057;-73
2022/06/20 11:00:38;;;;;;;3.90;1.60;;;;;;;;;;4972657;28;20042;-73
2022/06/20 11:03:19;;;;;;;4.95;1.60;;;;;;;;;;4972351;28;20041;-74
2022/06/20 11:06:17;;;;;;;3.20;2.00;;;;;;;;;;4973939;28;20039;-74
2022/06/20 11:09:21;;;;;;;3.85;1.80;;;;;;;;;;4973246;28;20371;-75
2022/06/20 11:11:53;;;;;;;2.50;1.60;;;;;;;;;;4973329;28;20105;-74
2022/06/20 11:14:57;;;;;;;3.38;1.50;;;;;;;;;;4973580;28;20035;-75
2022/06/20 11:17:35;;;;;;;8.20;1.70;;;;;;;;;;4973058;28;20122;-74
2022/06/20 11:20:34;;;;;;;6.72;1.65;;;;;;;;;;5000527;28;20045;-75
2022/06/20 11:23:20;;;;;;;4.13;1.48;;;;;;;;;;5012498;28;20042;-71
2022/06/20 11:26:11;;;;;;;5.38;1.70;;;;;;;;;;5011726;28;20045;-75
2022/06/20 11:28:46;;;;;;;3.65;1.92;;;;;;;;;;5012008;28;20480;-74
2022/06/20 11:31:18;;;;;;;2.63;1.60;;;;;;;;;;5011901;28;20030;-77
2022/06/20 11:34:01;;;;;;;6.40;1.55;;;;;;;;;;5012174;28;20128;-74
2022/06/20 11:37:00;;;;;;;5.05;1.80;;;;;;;;;;5000157;28;20481;-74
2022/06/20 11:39:35;;;;;;;4.40;1.70;;;;;;;;;;4999251;28;20034;-73
2022/06/20 11:42:25;;;;;;;4.90;1.80;;;;;;;;;;4973012;28;20069;-73
2022/06/20 11:45:06;;;;;;;5.28;1.67;;;;;;;;;;4982906;28;20113;-75
2022/06/20 11:47:56;;;;;;;2.00;1.55;;;;;;;;;;4980393;28;20529;-74
2022/06/20 11:51:06;;;;;;;2.58;1.90;;;;;;;;;;4973407;28;20059;-74
2022/06/20 11:54:00;;;;;;;3.85;1.85;;;;;;;;;;4971476;28;20073;-76
2022/06/20 11:56:43;;;;;;;2.83;1.65;;;;;;;;;;4972707;28;20122;-75
2022/06/20 11:59:46;;;;;;;4.20;2.42;;;;;;;;;;4973709;28;20042;-74
2022/06/20 12:02:21;;;;;;;4.80;2.53;;;;;;;;;;4973006;28;20034;-75
2022/06/20 12:04:50;;;;;;;4.97;2.00;;;;;;;;;;4973106;28;20027;-71
2022/06/20 12:07:29;;;;;;;4.32;1.70;;;;;;;;;;4971637;28;20077;-74
2022/06/20 12:10:27;;;;;;;2.63;1.73;;;;;;;;;;4973267;28;20069;-68
2022/06/20 12:13:25;;;;;;;5.07;1.80;;;;;;;;;;4972986;28;20054;-71
2022/06/20 12:16:08;;;;;;;3.67;1.60;;;;;;;;;;4980871;28;20038;-74
2022/06/20 12:24:46;;;;;;;3.53;1.83;;;;;;;;;;4974548;28;20407;-77
2022/06/20 12:27:16;;;;;;;6.25;2.80;;;;;;;;;;4974540;28;20031;-75
2022/06/20 12:29:44;;;;;;;4.53;1.90;;;;;;;;;;4974618;28;20031;-77
2022/06/20 12:32:31;;;;;;;4.80;2.10;;;;;;;;;;4973695;28;20027;-76
2022/06/20 12:35:03;;;;;;;3.63;2.55;;;;;;;;;;4973181;28;20075;-75
2022/06/20 12:37:34;;;;;;;2.88;1.80;;;;;;;;;;4973237;28;20043;-76
2022/06/20 12:40:05;;;;;;;2.87;1.67;;;;;;;;;;4979742;28;20477;-75
2022/06/20 12:42:49;;;;;;;3.15;1.70;;;;;;;;;;4991152;28;20042;-75
2022/06/20 12:45:41;;;;;;;2.05;1.50;;;;;;;;;;4989976;28;20030;-72
2022/06/20 12:48:16;;;;;;;1.80;1.30;;;;;;;;;;4992879;28;20030;-74
2022/06/20 12:51:11;;;;;;;5.57;1.92;;;;;;;;;;4992974;28;20043;-75
2022/06/20 12:53:59;;;;;;;3.97;1.88;;;;;;;;;;4996259;28;20398;-74
2022/06/20 12:56:31;;;;;;;5.25;2.70;;;;;;;;;;4992422;28;20042;-74
2022/06/20 12:59:03;;;;;;;3.42;1.73;;;;;;;;;;4992439;28;20034;-76
2022/06/20 13:01:54;;;;;;;1.70;1.40;;;;;;;;;;4992381;28;20467;-75
2022/06/20 13:04:50;;;;;;;2.42;1.60;;;;;;;;;;4993895;28;20494;-73
2022/06/20 13:07:57;;;;;;;3.30;1.67;;;;;;;;;;4995539;28;20039;-72
2022/06/20 13:10:54;;;;;;;3.75;1.80;;;;;;;;;;5013161;28;20049;-70
2022/06/20 13:13:39;;;;;;;2.60;1.50;;;;;;;;;;5013414;28;20052;-71
2022/06/20 13:16:44;;;;;;;4.93;1.90;;;;;;;;;;4999201;28;20102;-73
2022/06/20 13:19:28;;;;;;;1.88;1.38;;;;;;;;;;4995844;28;20034;-72
2022/06/20 13:22:06;;;;;;;2.17;1.55;;;;;;;;;;4995645;28;20035;-73
2022/06/20 13:25:02;;;;;;;7.93;1.80;;;;;;;;;;4995774;28;20037;-73
2022/06/20 13:27:48;;;;;;;2.53;1.50;;;;;;;;;;4996033;28;20080;-74
2022/06/20 13:30:36;;;;;;;3.00;1.73;;;;;;;;;;4995677;28;20113;-73
2022/06/20 13:33:49;;;;;;;2.28;1.30;;;;;;;;;;4995409;28;20114;-73
2022/06/20 13:36:20;;;;;;;3.30;1.50;;;;;;;;;;4995015;28;20435;-72
2022/06/20 13:39:09;;;;;;;3.00;1.80;;;;;;;;;;4995155;28;20041;-73
2022/06/20 13:41:52;;;;;;;3.85;1.85;;;;;;;;;;5002993;28;20417;-73
2022/06/20 13:44:46;;;;;;;2.00;1.42;;;;;;;;;;4995351;28;20161;-72
2022/06/20 13:47:39;;;;;;;3.47;1.70;;;;;;;;;;4995443;28;20161;-72
2022/06/20 13:50:34;;;;;;;2.55;1.70;;;;;;;;;;4995257;28;20026;-74
2022/06/20 13:53:23;;;;;;;4.72;1.80;;;;;;;;;;4997285;28;20477;-72
2022/06/20 13:55:59;;;;;;;3.22;1.98;;;;;;;;;;4995246;28;20109;-72
2022/06/20 13:58:37;;;;;;;3.33;1.60;;;;;;;;;;4993753;28;20027;-73
2022/06/20 14:01:16;;;;;;;3.22;1.70;;;;;;;;;;4990068;28;20556;-75
2022/06/20 14:03:56;;;;;;;3.38;1.70;;;;;;;;;;4993425;28;20041;-71
2022/06/20 14:06:51;;;;;;;4.18;1.92;;;;;;;;;;4993176;28;20081;-72
2022/06/20 14:09:29;;;;;;;2.50;1.65;;;;;;;;;;4992933;28;20069;-71
2022/06/20 14:12:05;;;;;;;2.85;1.63;;;;;;;;;;4993329;28;20036;-73
2022/06/20 14:14:39;;;;;;;3.92;1.77;;;;;;;;;;4991930;28;20070;-73
2022/06/20 14:17:27;;;;;;;3.85;1.63;;;;;;;;;;4992844;28;20488;-71
2022/06/20 14:19:58;;;;;;;3.05;1.70;;;;;;;;;;4993116;28;20031;-71
2022/06/20 14:22:49;;;;;;;3.72;1.83;;;;;;;;;;4993329;28;20042;-73
2022/06/20 14:25:33;;;;;;;1.70;1.50;;;;;;;;;;5012323;28;20491;-71
2022/06/20 14:28:00;;;;;;;2.97;1.50;;;;;;;;;;5012783;28;20073;-72
2022/06/20 14:30:33;;;;;;;2.63;1.80;;;;;;;;;;5012313;28;20404;-75
2022/06/20 14:33:12;;;;;;;2.72;1.80;;;;;;;;;;5012173;28;20026;-72
2022/06/20 14:36:09;;;;;;;3.30;1.65;;;;;;;;;;5012288;28;20034;-74
2022/06/20 14:38:53;;;;;;;5.25;2.35;;;;;;;;;;5001971;28;20037;-73
2022/06/20 14:41:50;;;;;;;2.67;1.70;;;;;;;;;;5006927;28;20373;-73
2022/06/20 14:44:22;;;;;;;2.15;1.60;;;;;;;;;;4992585;28;20041;-73
2022/06/20 14:47:00;;;;;;;2.38;1.63;;;;;;;;;;4992325;28;20031;-74
2022/06/20 14:49:45;;;;;;;3.20;2.58;;;;;;;;;;4992873;28;20120;-73
2022/06/20 14:53:06;;;;;;;3.42;1.92;;;;;;;;;;4992507;28;20152;-74
2022/06/20 14:55:45;;;;;;;3.20;2.30;;;;;;;;;;4981611;28;20396;-72
2022/06/20 14:58:40;;;;;;;3.05;2.10;;;;;;;;;;5011468;28;20084;-73
2022/06/20 15:01:16;;;;;;;2.65;1.80;;;;;;;;;;5011513;28;20045;-73
2022/06/20 15:03:54;;;;;;;5.25;2.00;;;;;;;;;;5010752;28;20033;-72
2022/06/20 15:06:29;;;;;;;2.25;1.63;;;;;;;;;;5012293;28;20148;-71
2022/06/20 15:09:15;;;;;;;2.15;1.50;;;;;;;;;;4994050;28;20042;-72
2022/06/20 15:11:56;;;;;;;2.35;1.70;;;;;;;;;;4992095;28;20439;-72
2022/06/20 15:14:35;;;;;;;4.88;1.80;;;;;;;;;;4992030;28;20034;-72
2022/06/20 15:17:10;;;;;;;3.17;1.90;;;;;;;;;;4992037;28;20467;-73
2022/06/20 15:20:02;;;;;;;2.72;1.90;;;;;;;;;;4991814;28;20045;-70
2022/06/20 15:22:48;;;;;;;2.92;1.63;;;;;;;;;;4992226;28;20405;-71
2022/06/20 15:25:16;;;;;;;4.75;2.10;;;;;;;;;;4982891;28;20067;-76
2022/06/20 15:27:54;;;;;;;3.20;1.50;;;;;;;;;;4991216;28;20065;-73
2022/06/20 15:30:35;;;;;;;4.40;1.70;;;;;;;;;;4991203;28;20092;-71
2022/06/20 15:33:04;;;;;;;6.55;2.13;;;;;;;;;;4991792;28;20035;-71
2022/06/20 15:35:57;;;;;;;4.15;1.80;;;;;;;;;;4989142;28;20041;-71
2022/06/20 15:38:37;;;;;;;3.03;1.70;;;;;;;;;;4991601;28;20034;-72
2022/06/20 15:41:03;;;;;;;5.05;1.85;;;;;;;;;;4990762;28;20489;-71
2022/06/20 15:43:53;;;;;;;7.75;1.75;;;;;;;;;;4992558;28;20022;-71
2022/06/20 15:46:43;;;;;;;3.55;1.63;;;;;;;;;;4992511;28;20038;-74
2022/06/20 15:49:41;;;;;;;4.88;1.52;;;;;;;;;;4991208;28;20567;-71
2022/06/20 15:52:32;;;;;;;4.47;1.63;;;;;;;;;;4993054;28;20042;-71
2022/06/20 15:55:01;;;;;;;2.50;1.48;;;;;;;;;;4992564;28;20110;-73
2022/06/20 15:57:49;;;;;;;2.30;1.85;;;;;;;;;;4992780;28;20026;-72
2022/06/20 16:00:22;;;;;;;10.00;1.83;;;;;;;;;;4992045;28;20031;-71
2022/06/20 16:03:26;;;;;;;3.53;1.60;;;;;;;;;;4987718;28;20386;-74
2022/06/20 16:05:55;;;;;;;2.58;1.63;;;;;;;;;;4991994;28;20031;-71
2022/06/20 16:08:46;;;;;;;2.00;1.38;;;;;;;;;;4996917;28;20227;-70
2022/06/20 16:11:36;;;;;;;2.25;1.70;;;;;;;;;;5011188;28;20045;-71
2022/06/20 16:14:05;;;;;;;2.45;1.50;;;;;;;;;;5011146;28;20026;-72